Time;durP1;ratioP1;P1;durP2;ratioP2;P2;SDS_P1;SDS_P2;PMS_P1;PMS_P2;Temp;Humidity;BMP_temperature;BMP_pressure;BME280_temperature;BME280_humidity;BME280_pressure;Samples;Min_cycle;Max_cycle;Signal;HPM_P1;HPM_P2
2023/04/27 00:01:11;;;;;;;3.60;1.88;;;12.00;99.90;;;;;;5052829;28;20025;-44
2023/04/27 00:03:38;;;;;;;3.63;2.00;;;12.00;99.90;;;;;;5052807;28;20564;-44
2023/04/27 00:06:03;;;;;;;6.00;1.80;;;12.00;99.90;;;;;;5052548;28;20021;-45
2023/04/27 00:08:29;;;;;;;4.75;1.73;;;12.00;99.90;;;;;;5052739;28;20495;-47
2023/04/27 00:10:56;;;;;;;2.88;1.70;;;12.00;99.90;;;;;;5053668;28;20422;-44
2023/04/27 00:13:21;;;;;;;5.57;1.70;;;12.00;99.90;;;;;;5052733;28;20024;-44
2023/04/27 00:15:47;;;;;;;4.70;2.00;;;12.00;99.90;;;;;;5051196;28;20029;-44
2023/04/27 00:18:13;;;;;;;5.07;2.15;;;12.00;99.90;;;;;;5052473;28;20024;-44
2023/04/27 00:20:39;;;;;;;4.45;1.70;;;12.00;99.90;;;;;;5052442;28;20032;-44
2023/04/27 00:23:04;;;;;;;3.78;1.92;;;12.00;99.90;;;;;;5052611;28;20032;-44
2023/04/27 00:25:30;;;;;;;3.78;1.95;;;12.00;99.90;;;;;;5052449;28;20475;-44
2023/04/27 00:27:56;;;;;;;3.83;1.85;;;12.00;99.90;;;;;;5051653;28;20024;-44
2023/04/27 00:30:21;;;;;;;5.97;2.00;;;12.00;99.90;;;;;;5053022;28;20372;-47
2023/04/27 00:32:47;;;;;;;5.70;1.95;;;12.00;99.90;;;;;;5052295;28;20112;-43
2023/04/27 00:35:12;;;;;;;4.15;1.75;;;12.00;99.90;;;;;;5052361;28;20064;-44
2023/04/27 00:37:38;;;;;;;2.97;1.42;;;12.00;99.90;;;;;;5051616;28;20043;-44
2023/04/27 00:40:07;;;;;;;3.58;1.90;;;12.00;99.90;;;;;;5052209;28;20021;-44
2023/04/27 00:42:33;;;;;;;4.70;1.92;;;12.00;99.90;;;;;;5052149;28;20025;-45
2023/04/27 00:44:59;;;;;;;3.88;2.03;;;12.00;99.90;;;;;;5052125;28;20025;-46
2023/04/27 00:47:25;;;;;;;3.40;1.90;;;12.00;99.90;;;;;;5051466;28;20032;-43
2023/04/27 00:49:51;;;;;;;2.03;1.50;;;11.90;99.90;;;;;;5052988;28;20021;-42
2023/04/27 00:52:17;;;;;;;4.18;1.80;;;12.00;99.90;;;;;;5052044;28;20025;-44
2023/04/27 00:54:43;;;;;;;3.90;1.75;;;12.00;99.90;;;;;;5052219;28;20047;-47
2023/04/27 00:57:09;;;;;;;3.08;1.73;;;12.00;99.90;;;;;;5051403;28;20398;-44
2023/04/27 00:59:34;;;;;;;4.65;1.77;;;12.00;99.90;;;;;;5051794;28;20025;-45
2023/04/27 01:02:00;;;;;;;5.13;1.80;;;12.00;99.90;;;;;;5051838;28;20102;-44
2023/04/27 01:04:27;;;;;;;3.67;1.90;;;12.00;99.90;;;;;;5052076;28;20036;-44
2023/04/27 01:06:53;;;;;;;3.45;1.85;;;12.00;99.90;;;;;;5050931;28;20056;-44
2023/04/27 01:09:19;;;;;;;3.60;1.77;;;11.90;99.90;;;;;;5051825;28;20053;-44
2023/04/27 01:11:45;;;;;;;6.55;2.30;;;12.00;99.90;;;;;;5051340;28;20025;-43
2023/04/27 01:14:11;;;;;;;7.10;1.85;;;12.00;99.90;;;;;;5051608;28;20398;-43
2023/04/27 01:16:37;;;;;;;4.10;1.90;;;11.90;99.90;;;;;;5051133;28;20021;-46
2023/04/27 01:19:03;;;;;;;5.45;1.90;;;11.90;99.90;;;;;;5051416;28;20028;-41
2023/04/27 01:21:29;;;;;;;7.95;2.17;;;11.90;99.90;;;;;;5051363;28;20036;-44
2023/04/27 01:23:56;;;;;;;4.72;1.88;;;11.90;99.90;;;;;;5051282;28;20025;-44
2023/04/27 01:26:21;;;;;;;3.63;1.90;;;11.90;99.90;;;;;;5050858;28;20025;-42
2023/04/27 01:28:48;;;;;;;6.10;1.90;;;11.90;99.90;;;;;;5051486;28;20043;-46
2023/04/27 01:31:14;;;;;;;5.53;2.00;;;11.90;99.90;;;;;;5051312;28;20028;-44
2023/04/27 01:33:40;;;;;;;4.03;1.70;;;11.90;99.90;;;;;;5051427;28;20033;-44
2023/04/27 01:36:06;;;;;;;6.13;2.13;;;11.90;99.90;;;;;;5050939;28;20028;-44
2023/04/27 01:38:33;;;;;;;3.63;1.70;;;11.90;99.90;;;;;;5051581;28;20036;-43
2023/04/27 01:41:02;;;;;;;7.32;2.08;;;11.90;99.90;;;;;;5051075;28;20087;-44
2023/04/27 01:43:28;;;;;;;4.15;1.77;;;11.90;99.90;;;;;;5051102;28;20078;-45
2023/04/27 01:45:54;;;;;;;4.75;2.10;;;11.90;99.90;;;;;;5050835;28;20434;-44
2023/04/27 01:48:19;;;;;;;4.72;2.00;;;11.90;99.90;;;;;;5050926;28;20021;-44
2023/04/27 01:50:45;;;;;;;6.53;2.15;;;11.90;99.90;;;;;;5051011;28;20078;-44
2023/04/27 01:53:11;;;;;;;4.03;1.98;;;11.90;99.90;;;;;;5051056;28;20029;-47
2023/04/27 01:55:37;;;;;;;5.53;2.13;;;11.90;99.90;;;;;;5050687;28;20036;-44
2023/04/27 01:58:02;;;;;;;4.07;1.80;;;11.90;99.90;;;;;;5050438;28;20162;-47
2023/04/27 02:00:28;;;;;;;5.47;1.95;;;11.90;99.90;;;;;;5051098;28;20022;-46
2023/04/27 02:02:56;;;;;;;4.38;1.90;;;11.90;99.90;;;;;;5050719;28;20037;-45
2023/04/27 02:05:22;;;;;;;4.35;2.00;;;11.90;99.90;;;;;;5052634;28;20391;-44
2023/04/27 02:07:48;;;;;;;5.18;2.38;;;11.90;99.90;;;;;;5051648;28;20033;-45
2023/04/27 02:10:14;;;;;;;5.45;2.20;;;11.90;99.90;;;;;;5051631;28;20064;-44
2023/04/27 02:12:40;;;;;;;3.72;2.20;;;11.90;99.90;;;;;;5050889;28;20053;-44
2023/04/27 02:15:07;;;;;;;2.83;1.80;;;11.90;99.90;;;;;;5051406;28;20084;-44
2023/04/27 02:17:34;;;;;;;4.60;1.83;;;11.90;99.90;;;;;;5051260;28;20494;-44
2023/04/27 02:20:00;;;;;;;5.35;2.08;;;11.90;99.90;;;;;;5052103;28;20052;-46
2023/04/27 02:22:26;;;;;;;4.00;2.15;;;11.90;99.90;;;;;;5052207;28;20049;-44
2023/04/27 02:24:52;;;;;;;6.13;2.28;;;11.90;99.90;;;;;;5050665;28;20032;-46
2023/04/27 03:21:22;;;;;;;4.80;2.40;;;11.80;99.90;;;;;;5053554;28;20028;-44
2023/04/27 03:23:48;;;;;;;3.83;1.90;;;11.80;99.90;;;;;;5053776;28;20075;-44
2023/04/27 03:26:14;;;;;;;6.38;2.47;;;11.80;99.90;;;;;;5052970;28;20029;-47
2023/04/27 03:28:40;;;;;;;6.40;2.30;;;11.80;99.90;;;;;;5053664;28;20044;-43
2023/04/27 03:31:07;;;;;;;6.07;2.83;;;11.80;99.90;;;;;;5053507;28;20052;-43
2023/04/27 03:33:35;;;;;;;5.35;1.83;;;11.80;99.90;;;;;;5054081;28;20036;-44
2023/04/27 03:36:01;;;;;;;7.80;2.25;;;11.80;99.90;;;;;;5054063;28;20108;-44
2023/04/27 03:38:27;;;;;;;4.82;2.35;;;11.80;99.90;;;;;;5054023;28;20028;-44
2023/04/27 03:40:53;;;;;;;3.83;2.20;;;11.80;99.90;;;;;;5053200;28;20552;-44
2023/04/27 03:43:20;;;;;;;6.15;2.33;;;11.80;99.90;;;;;;5053186;28;20350;-47
2023/04/27 03:45:46;;;;;;;5.90;2.15;;;11.80;99.90;;;;;;5052795;28;20099;-44
2023/04/27 03:48:13;;;;;;;5.70;2.30;;;11.80;99.90;;;;;;5052867;28;20073;-45
2023/04/27 03:50:39;;;;;;;4.53;2.03;;;11.80;99.90;;;;;;5052922;28;20501;-44
2023/04/27 03:53:05;;;;;;;4.55;2.13;;;11.80;99.90;;;;;;5053245;28;20104;-44
2023/04/27 03:55:31;;;;;;;3.60;2.20;;;11.80;99.90;;;;;;5053278;28;20032;-44
2023/04/27 03:57:56;;;;;;;6.30;2.22;;;11.80;99.90;;;;;;5053050;28;20024;-44
2023/04/27 04:00:22;;;;;;;6.18;2.33;;;11.80;99.90;;;;;;5052728;28;20032;-46
2023/04/27 04:02:48;;;;;;;4.88;2.30;;;11.80;99.90;;;;;;5053031;28;20106;-43
2023/04/27 04:05:14;;;;;;;4.28;2.00;;;11.80;99.90;;;;;;5052914;28;20654;-44
2023/04/27 04:07:43;;;;;;;3.95;1.90;;;11.80;99.90;;;;;;5052319;28;20029;-45
2023/04/27 04:10:09;;;;;;;6.93;2.55;;;11.80;99.90;;;;;;5053971;28;20025;-44
2023/04/27 04:12:35;;;;;;;4.63;1.98;;;11.80;99.90;;;;;;5052744;28;20040;-44
2023/04/27 04:15:02;;;;;;;7.32;2.05;;;11.80;99.90;;;;;;5053027;28;20021;-44
2023/04/27 04:17:28;;;;;;;4.13;2.10;;;11.80;99.90;;;;;;5053924;28;20029;-47
2023/04/27 04:19:53;;;;;;;4.43;2.33;;;11.80;99.90;;;;;;5055633;28;20402;-44
2023/04/27 04:22:19;;;;;;;6.60;2.22;;;11.80;99.90;;;;;;5054185;28;20021;-44
2023/04/27 04:24:45;;;;;;;5.38;2.28;;;11.80;99.90;;;;;;5053851;28;20025;-47
2023/04/27 04:27:10;;;;;;;5.18;2.35;;;11.80;99.90;;;;;;5053167;28;20035;-44
2023/04/27 04:29:37;;;;;;;6.00;2.30;;;11.80;99.90;;;;;;5053359;28;20048;-46
2023/04/27 04:32:03;;;;;;;5.25;2.25;;;11.80;99.90;;;;;;5052697;28;20024;-44
2023/04/27 04:34:29;;;;;;;6.18;2.22;;;11.80;99.90;;;;;;5052347;28;20399;-44
2023/04/27 04:36:56;;;;;;;5.60;2.30;;;11.80;99.90;;;;;;5051564;28;20056;-47
2023/04/27 04:39:22;;;;;;;7.00;2.40;;;11.80;99.90;;;;;;5053325;28;20177;-44
2023/04/27 04:41:48;;;;;;;2.67;1.90;;;11.80;99.90;;;;;;5052343;28;20051;-44
2023/04/27 04:44:15;;;;;;;3.67;2.20;;;11.80;99.90;;;;;;5051904;28;20143;-44
2023/04/27 04:46:41;;;;;;;5.10;2.50;;;11.70;99.90;;;;;;5052458;28;20013;-43
2023/04/27 04:49:07;;;;;;;6.45;2.10;;;11.70;99.90;;;;;;5053189;28;20032;-44
2023/04/27 04:51:33;;;;;;;5.65;2.40;;;11.80;99.90;;;;;;5052055;28;20033;-44
2023/04/27 04:53:58;;;;;;;3.30;2.22;;;11.70;99.90;;;;;;5052071;28;20033;-44
2023/04/27 04:56:24;;;;;;;3.03;1.95;;;11.80;99.90;;;;;;5051376;28;20037;-46
2023/04/27 04:58:50;;;;;;;4.05;2.17;;;11.80;99.90;;;;;;5051603;28;20036;-47
2023/04/27 05:01:15;;;;;;;6.25;2.20;;;11.80;99.90;;;;;;5051289;28;20021;-43
2023/04/27 05:03:41;;;;;;;3.83;2.15;;;11.80;99.90;;;;;;5051566;28;20036;-45
2023/04/27 05:06:07;;;;;;;3.92;1.98;;;11.80;99.90;;;;;;5051376;28;20805;-46
2023/04/27 05:08:32;;;;;;;5.43;2.65;;;11.80;99.90;;;;;;5052811;28;20495;-46
2023/04/27 05:10:58;;;;;;;4.00;2.00;;;11.70;99.90;;;;;;5051547;28;20462;-44
2023/04/27 05:13:24;;;;;;;4.13;2.47;;;11.70;99.90;;;;;;5051470;28;20360;-45
2023/04/27 05:15:50;;;;;;;4.13;2.03;;;11.70;99.90;;;;;;5051189;28;20101;-44
2023/04/27 05:18:16;;;;;;;5.40;2.33;;;11.70;99.90;;;;;;5051627;28;20063;-45
2023/04/27 05:20:42;;;;;;;5.85;2.28;;;11.70;99.90;;;;;;5050453;28;20052;-45
2023/04/27 05:23:08;;;;;;;6.18;2.20;;;11.70;99.90;;;;;;5051303;28;20021;-45
2023/04/27 05:25:40;;;;;;;8.50;2.58;;;11.70;99.90;;;;;;5051327;28;20487;-45
2023/04/27 05:28:07;;;;;;;4.25;1.95;;;11.70;99.90;;;;;;5050979;28;20104;-46
2023/04/27 05:30:33;;;;;;;3.75;2.03;;;11.70;99.90;;;;;;5051392;28;20025;-44
2023/04/27 05:32:58;;;;;;;6.88;2.67;;;11.70;99.90;;;;;;5051149;28;20383;-44
2023/04/27 05:35:24;;;;;;;9.07;3.85;;;11.70;99.90;;;;;;5051357;28;20028;-45
2023/04/27 05:37:49;;;;;;;6.85;3.22;;;11.70;99.90;;;;;;5050490;28;20064;-47
2023/04/27 05:40:15;;;;;;;6.03;2.90;;;11.70;99.90;;;;;;5051296;28;20536;-45
2023/04/27 05:42:41;;;;;;;10.10;3.10;;;11.70;99.90;;;;;;5050987;28;20021;-44
2023/04/27 05:45:07;;;;;;;5.13;2.63;;;11.70;99.90;;;;;;5051988;28;20070;-45
2023/04/27 05:47:32;;;;;;;4.22;2.30;;;11.70;99.90;;;;;;5051143;28;20490;-45
2023/04/27 05:49:58;;;;;;;5.07;2.58;;;11.70;99.90;;;;;;5051465;28;20025;-45
2023/04/27 05:52:29;;;;;;;4.20;2.30;;;11.70;99.90;;;;;;5050949;28;20028;-44
2023/04/27 05:54:55;;;;;;;4.50;2.50;;;11.70;99.90;;;;;;5051139;28;20107;-45
2023/04/27 05:57:21;;;;;;;6.88;2.42;;;11.70;99.90;;;;;;5052349;28;20029;-45
2023/04/27 05:59:46;;;;;;;7.65;2.50;;;11.70;99.90;;;;;;5052276;28;20521;-46
2023/04/27 06:02:12;;;;;;;6.72;2.35;;;11.70;99.90;;;;;;5051898;28;20033;-45
2023/04/27 06:04:39;;;;;;;4.68;2.60;;;11.70;99.90;;;;;;5051729;28;20086;-48
2023/04/27 06:07:12;;;;;;;4.75;2.45;;;11.70;99.90;;;;;;5052871;28;20717;-47
2023/04/27 06:09:38;;;;;;;3.23;2.27;;;11.70;99.90;;;;;;5052281;28;20116;-45
2023/04/27 06:12:05;;;;;;;7.30;2.22;;;11.70;99.90;;;;;;5053431;28;20284;-45
2023/04/27 06:14:32;;;;;;;3.97;2.50;;;11.70;99.90;;;;;;5054854;28;20025;-45
2023/04/27 06:16:58;;;;;;;4.20;2.40;;;11.70;99.90;;;;;;5055352;28;20032;-46
2023/04/27 06:19:24;;;;;;;4.50;2.60;;;11.70;99.90;;;;;;5056250;28;20021;-45
2023/04/27 06:21:50;;;;;;;3.80;2.15;;;11.70;99.90;;;;;;5054860;28;20028;-46
2023/04/27 06:24:16;;;;;;;3.42;2.10;;;11.80;99.90;;;;;;5054754;28;20056;-45
2023/04/27 06:26:42;;;;;;;5.50;2.38;;;11.70;99.90;;;;;;5054297;28;20029;-45
2023/04/27 06:29:07;;;;;;;3.08;2.40;;;11.80;99.90;;;;;;5054557;28;20025;-45
2023/04/27 06:31:33;;;;;;;5.38;2.33;;;11.80;99.90;;;;;;5054561;28;20025;-47
2023/04/27 06:33:59;;;;;;;6.10;2.67;;;11.80;99.90;;;;;;5054880;28;20036;-43
2023/04/27 06:36:28;;;;;;;4.32;2.15;;;11.80;99.90;;;;;;5053728;28;20029;-43
2023/04/27 06:38:55;;;;;;;3.85;2.15;;;11.80;99.90;;;;;;5055061;28;20391;-45
2023/04/27 06:41:21;;;;;;;7.20;2.33;;;11.80;99.90;;;;;;5056681;28;20495;-45
2023/04/27 06:43:47;;;;;;;3.88;2.33;;;11.80;99.90;;;;;;5056286;28;20108;-43
2023/04/27 06:46:13;;;;;;;4.75;2.40;;;11.80;99.90;;;;;;5055331;28;20112;-44
2023/04/27 06:48:38;;;;;;;6.18;2.60;;;11.90;99.90;;;;;;5054128;28;20056;-46
2023/04/27 06:51:04;;;;;;;6.63;2.78;;;11.80;99.90;;;;;;5054691;28;20568;-43
2023/04/27 06:53:30;;;;;;;6.97;2.47;;;11.80;99.90;;;;;;5055622;28;20155;-45
2023/04/27 06:55:56;;;;;;;5.18;2.53;;;11.80;99.90;;;;;;5054587;28;20029;-45
2023/04/27 06:58:22;;;;;;;4.32;2.65;;;11.80;99.90;;;;;;5054413;28;20025;-45
2023/04/27 07:00:48;;;;;;;6.88;2.75;;;11.80;99.90;;;;;;5055449;28;20495;-44
2023/04/27 07:03:13;;;;;;;6.00;2.55;;;11.80;99.90;;;;;;5054265;28;20037;-48
2023/04/27 07:05:40;;;;;;;5.90;2.72;;;11.80;99.90;;;;;;5054983;28;20536;-45
2023/04/27 07:08:06;;;;;;;5.70;2.50;;;11.90;99.90;;;;;;5054151;28;20017;-46
2023/04/27 07:10:32;;;;;;;5.57;2.33;;;11.90;99.90;;;;;;5055327;28;20021;-47
2023/04/27 07:12:57;;;;;;;4.65;2.47;;;11.90;99.90;;;;;;5055297;28;20029;-45
2023/04/27 07:15:23;;;;;;;7.70;3.13;;;11.90;99.90;;;;;;5054833;28;20076;-45
2023/04/27 07:17:52;;;;;;;4.60;2.42;;;11.90;99.90;;;;;;5053328;28;20025;-47
2023/04/27 07:20:18;;;;;;;8.75;2.80;;;11.90;99.90;;;;;;5053519;28;20482;-45
2023/04/27 07:22:44;;;;;;;5.63;2.58;;;11.90;99.90;;;;;;5053745;28;20143;-45
2023/04/27 07:25:10;;;;;;;5.85;2.33;;;11.90;99.90;;;;;;5053400;28;20104;-46
2023/04/27 07:27:37;;;;;;;2.70;2.00;;;11.90;99.90;;;;;;5053239;28;20801;-45
2023/04/27 07:30:04;;;;;;;4.10;2.10;;;12.00;99.90;;;;;;5053395;28;20068;-48
2023/04/27 07:32:30;;;;;;;5.20;2.10;;;12.00;99.90;;;;;;5053906;28;20048;-43
2023/04/27 07:34:56;;;;;;;2.50;1.73;;;12.00;99.90;;;;;;5054061;28;20074;-45
2023/04/27 07:37:23;;;;;;;5.25;2.50;;;12.00;99.90;;;;;;5053192;28;20035;-45
2023/04/27 07:39:50;;;;;;;3.05;2.05;;;12.00;99.90;;;;;;5053652;28;20075;-47
2023/04/27 07:42:17;;;;;;;2.95;2.03;;;12.00;99.90;;;;;;5053334;28;20120;-45
2023/04/27 07:44:43;;;;;;;3.80;2.03;;;12.00;99.90;;;;;;5053595;28;20029;-45
2023/04/27 07:47:08;;;;;;;4.85;1.95;;;12.00;99.90;;;;;;5052948;28;20422;-45
2023/04/27 07:49:35;;;;;;;3.63;2.00;;;12.00;99.90;;;;;;5053335;28;20437;-47
2023/04/27 07:52:00;;;;;;;3.15;1.73;;;12.00;99.90;;;;;;5053078;28;20231;-43
2023/04/27 07:54:27;;;;;;;2.78;1.65;;;12.10;99.90;;;;;;5053126;28;20044;-45
2023/04/27 07:56:53;;;;;;;6.05;2.00;;;12.10;99.90;;;;;;5052766;28;20267;-44
2023/04/27 07:59:18;;;;;;;6.93;2.03;;;12.10;99.90;;;;;;5052836;28;20495;-45
2023/04/27 08:01:44;;;;;;;5.35;2.03;;;12.00;99.90;;;;;;5052871;28;20025;-45
2023/04/27 08:04:11;;;;;;;6.85;2.03;;;12.10;99.90;;;;;;5052951;28;20491;-47
2023/04/27 08:06:37;;;;;;;4.18;1.83;;;12.10;99.90;;;;;;5052350;28;20086;-47
2023/04/27 08:09:03;;;;;;;2.67;1.85;;;12.10;99.90;;;;;;5052998;28;20021;-45
2023/04/27 08:11:30;;;;;;;3.60;2.08;;;12.10;99.90;;;;;;5052844;28;20020;-44
2023/04/27 08:13:56;;;;;;;3.92;2.00;;;12.10;99.90;;;;;;5052695;28;20032;-45
2023/04/27 08:16:21;;;;;;;5.32;2.00;;;12.10;99.90;;;;;;5052315;28;20021;-47
2023/04/27 08:18:49;;;;;;;4.57;1.67;;;12.20;99.90;;;;;;5052779;28;20060;-45
2023/04/27 08:21:15;;;;;;;4.25;1.75;;;12.10;99.90;;;;;;5053086;28;20028;-43
2023/04/27 08:23:41;;;;;;;2.97;2.00;;;12.20;99.90;;;;;;5052548;28;20025;-45
2023/04/27 08:26:07;;;;;;;3.63;1.83;;;12.20;99.90;;;;;;5051882;28;20032;-47
2023/04/27 08:28:32;;;;;;;3.20;1.90;;;12.20;99.90;;;;;;5052478;28;20096;-45
2023/04/27 08:30:58;;;;;;;2.72;1.77;;;12.20;99.90;;;;;;5052682;28;20021;-45
2023/04/27 08:33:24;;;;;;;4.35;1.55;;;12.20;99.90;;;;;;5053882;28;20028;-46
2023/04/27 08:35:53;;;;;;;3.10;1.70;;;12.20;99.90;;;;;;5052552;28;20035;-46
2023/04/27 08:38:18;;;;;;;4.22;1.50;;;12.20;99.90;;;;;;5053566;28;20037;-47
2023/04/27 08:40:44;;;;;;;3.83;1.80;;;12.20;99.90;;;;;;5053469;28;20108;-45
2023/04/27 08:43:11;;;;;;;3.63;2.08;;;12.30;99.90;;;;;;5053919;28;20544;-44
2023/04/27 08:45:46;;;;;;;4.07;1.88;;;12.30;99.90;;;;;;5054740;28;20040;-46
2023/04/27 08:48:12;;;;;;;5.72;1.88;;;12.30;99.90;;;;;;5052883;28;20021;-45
2023/04/27 08:50:42;;;;;;;4.35;1.60;;;12.30;99.90;;;;;;5052871;28;20060;-45
2023/04/27 08:53:18;;;;;;;3.40;1.73;;;12.30;99.90;;;;;;5052768;28;20025;-47
2023/04/27 08:55:44;;;;;;;3.17;1.75;;;12.30;99.90;;;;;;5052764;28;20502;-46
2023/04/27 08:58:10;;;;;;;3.08;2.00;;;12.40;99.90;;;;;;5053630;28;20036;-46
2023/04/27 09:00:43;;;;;;;2.35;1.67;;;12.40;99.90;;;;;;5053977;28;20029;-47
2023/04/27 09:03:21;;;;;;;3.75;1.67;;;12.40;99.90;;;;;;5053125;28;20083;-45
2023/04/27 09:05:47;;;;;;;3.17;1.90;;;12.40;99.90;;;;;;5051978;28;20376;-47
2023/04/27 09:08:13;;;;;;;6.18;2.00;;;12.40;99.90;;;;;;5051661;28;20012;-47
2023/04/27 09:10:49;;;;;;;3.63;1.52;;;12.40;99.90;;;;;;5051699;28;20021;-47
2023/04/27 09:13:15;;;;;;;4.28;1.63;;;12.40;99.90;;;;;;5051552;28;20108;-44
2023/04/27 09:15:46;;;;;;;4.40;1.85;;;12.40;99.90;;;;;;5051464;28;20467;-45
2023/04/27 09:18:21;;;;;;;4.03;1.80;;;12.40;99.90;;;;;;5051175;28;20037;-45
2023/04/27 09:20:48;;;;;;;3.85;1.80;;;12.40;99.90;;;;;;5051510;28;20040;-47
2023/04/27 09:23:37;;;;;;;4.28;1.88;;;12.40;99.90;;;;;;5051784;28;20028;-46
2023/04/27 09:26:08;;;;;;;3.70;1.67;;;12.40;99.90;;;;;;5051404;28;20039;-45
2023/04/27 09:28:38;;;;;;;3.40;1.58;;;12.40;99.90;;;;;;5051341;28;20013;-45
2023/04/27 09:31:04;;;;;;;2.67;1.50;;;12.40;99.90;;;;;;5051642;28;20070;-47
2023/04/27 09:33:31;;;;;;;3.40;1.88;;;12.40;99.90;;;;;;5051228;28;20021;-47
2023/04/27 09:35:59;;;;;;;3.75;1.63;;;12.40;99.90;;;;;;5050690;28;20491;-46
2023/04/27 09:38:25;;;;;;;3.03;1.60;;;12.40;99.90;;;;;;5051457;28;20053;-47
2023/04/27 09:40:52;;;;;;;2.70;1.38;;;12.40;99.90;;;;;;5051648;28;20056;-44
2023/04/27 09:43:18;;;;;;;4.05;1.60;;;12.40;99.90;;;;;;5050871;28;20033;-46
2023/04/27 09:45:43;;;;;;;5.63;1.80;;;12.40;99.90;;;;;;5050736;28;20043;-45
2023/04/27 09:48:10;;;;;;;2.72;1.33;;;12.50;99.90;;;;;;5050636;28;20391;-45
2023/04/27 09:50:38;;;;;;;3.10;1.45;;;12.50;99.90;;;;;;5051088;28;20155;-47
2023/04/27 09:53:07;;;;;;;4.35;1.50;;;12.50;99.90;;;;;;5051326;28;20108;-45
2023/04/27 09:55:53;;;;;;;5.03;1.77;;;12.40;99.90;;;;;;5050802;28;20017;-45
2023/04/27 09:58:50;;;;;;;5.38;1.80;;;12.50;99.90;;;;;;5050894;28;20029;-44
2023/04/27 10:01:28;;;;;;;2.50;1.65;;;12.50;99.90;;;;;;5031623;28;20515;-45
2023/04/27 10:04:28;;;;;;;4.50;1.85;;;12.50;99.90;;;;;;5050757;28;20432;-43
2023/04/27 10:06:57;;;;;;;2.58;1.85;;;12.50;99.90;;;;;;5050445;28;20037;-45
2023/04/27 10:09:25;;;;;;;5.43;1.90;;;12.50;99.90;;;;;;5050745;28;20025;-47
2023/04/27 10:11:52;;;;;;;4.80;1.50;;;12.50;99.90;;;;;;5050726;28;20076;-46
2023/04/27 10:14:20;;;;;;;4.28;1.60;;;12.50;99.90;;;;;;5050821;28;20021;-47
2023/04/27 10:16:57;;;;;;;3.45;1.65;;;12.50;99.90;;;;;;5050348;28;20029;-47
2023/04/27 10:19:24;;;;;;;2.92;1.40;;;12.50;99.90;;;;;;5051077;28;20033;-47
2023/04/27 10:21:59;;;;;;;3.83;1.40;;;12.50;99.90;;;;;;5051151;28;20025;-44
2023/04/27 10:24:41;;;;;;;3.95;1.58;;;12.60;99.90;;;;;;5050720;28;20025;-46
2023/04/27 10:27:10;;;;;;;4.28;1.65;;;12.60;99.90;;;;;;5050095;28;20031;-45
2023/04/27 10:29:40;;;;;;;3.30;1.63;;;12.60;99.90;;;;;;5050874;28;20064;-46
2023/04/27 10:32:22;;;;;;;4.85;1.65;;;12.60;99.90;;;;;;5050806;28;20105;-43
2023/04/27 10:34:49;;;;;;;2.80;1.73;;;12.60;99.90;;;;;;5050807;28;20051;-47
2023/04/27 10:37:18;;;;;;;4.05;1.95;;;12.60;99.90;;;;;;5050240;28;20029;-46
2023/04/27 10:39:44;;;;;;;5.35;1.50;;;12.60;99.90;;;;;;5050597;28;20033;-44
2023/04/27 10:42:10;;;;;;;3.60;1.80;;;12.60;99.90;;;;;;5050546;28;20372;-44
2023/04/27 10:44:37;;;;;;;3.50;1.90;;;12.70;99.90;;;;;;5050638;28;20088;-45
2023/04/27 10:47:14;;;;;;;3.55;1.58;;;12.60;99.90;;;;;;5050406;28;20404;-47
2023/04/27 10:49:40;;;;;;;3.78;1.80;;;12.60;99.90;;;;;;5050517;28;20021;-45
2023/04/27 10:52:06;;;;;;;3.88;1.90;;;12.50;99.90;;;;;;5048889;28;20021;-45
2023/04/27 10:54:32;;;;;;;5.53;1.80;;;12.60;99.90;;;;;;5050636;28;20033;-45
2023/04/27 10:57:09;;;;;;;3.95;1.48;;;12.60;99.90;;;;;;5049797;28;20120;-46
2023/04/27 10:59:48;;;;;;;3.40;1.55;;;12.50;99.90;;;;;;5051344;28;20025;-47
2023/04/27 11:02:14;;;;;;;2.30;1.55;;;12.50;99.90;;;;;;5054828;28;20372;-46
2023/04/27 11:04:41;;;;;;;2.47;1.50;;;12.50;99.90;;;;;;5053670;28;20025;-47
2023/04/27 11:07:10;;;;;;;3.30;1.80;;;12.50;99.90;;;;;;5053351;28;20017;-44
2023/04/27 11:09:37;;;;;;;3.20;1.35;;;12.50;99.90;;;;;;5054404;28;20059;-44
2023/04/27 11:12:07;;;;;;;2.53;1.50;;;12.50;99.90;;;;;;5053831;28;20084;-46
2023/04/27 11:14:35;;;;;;;4.65;2.00;;;12.60;99.90;;;;;;5053752;28;20454;-45
2023/04/27 11:17:01;;;;;;;3.22;1.52;;;12.60;99.90;;;;;;5053065;28;20036;-45
2023/04/27 11:19:29;;;;;;;4.35;1.67;;;12.60;99.90;;;;;;5053626;28;20387;-47
2023/04/27 11:22:03;;;;;;;2.08;1.20;;;12.60;99.90;;;;;;5053676;28;20491;-44
2023/04/27 11:24:28;;;;;;;3.83;1.50;;;12.60;99.90;;;;;;5053558;28;20413;-45
2023/04/27 11:26:54;;;;;;;3.75;1.50;;;12.60;99.90;;;;;;5052996;28;20044;-45
2023/04/27 11:29:20;;;;;;;2.45;1.77;;;12.60;99.90;;;;;;5053611;28;20028;-45
2023/04/27 11:31:48;;;;;;;3.55;1.60;;;12.70;99.90;;;;;;5053406;28;20024;-47
2023/04/27 11:34:20;;;;;;;2.88;1.55;;;12.70;99.90;;;;;;5053594;28;20028;-44
2023/04/27 11:36:56;;;;;;;2.80;1.60;;;12.60;99.90;;;;;;5052762;28;20502;-47
2023/04/27 11:39:22;;;;;;;2.90;1.52;;;12.60;99.90;;;;;;5053381;28;20110;-44
2023/04/27 11:41:48;;;;;;;2.80;1.40;;;12.70;99.90;;;;;;5053348;28;20428;-45
2023/04/27 11:44:13;;;;;;;3.00;1.40;;;12.70;99.90;;;;;;5053005;28;20033;-45
2023/04/27 11:46:43;;;;;;;1.45;1.20;;;12.60;99.90;;;;;;5052792;28;20442;-45
2023/04/27 11:49:09;;;;;;;3.80;1.60;;;12.60;99.90;;;;;;5053140;28;20052;-45
2023/04/27 11:51:35;;;;;;;2.95;1.25;;;12.60;99.90;;;;;;5053158;28;20082;-47
2023/04/27 11:54:05;;;;;;;2.55;1.40;;;12.60;99.90;;;;;;5053049;28;20028;-45
2023/04/27 11:56:39;;;;;;;2.28;1.50;;;12.60;99.90;;;;;;5052605;28;20032;-47
2023/04/27 11:59:05;;;;;;;2.17;1.65;;;12.60;99.90;;;;;;5053068;28;20032;-45
2023/04/27 12:01:34;;;;;;;3.33;1.50;;;12.60;99.90;;;;;;5052955;28;20112;-45
2023/04/27 12:04:01;;;;;;;2.63;1.40;;;12.60;99.90;;;;;;5052662;28;20040;-43
2023/04/27 12:06:27;;;;;;;3.58;1.50;;;12.60;99.90;;;;;;5052232;28;20055;-47
2023/04/27 12:08:57;;;;;;;2.85;1.40;;;12.60;99.90;;;;;;5052765;28;20102;-45
2023/04/27 12:11:26;;;;;;;2.78;1.48;;;12.60;99.90;;;;;;5051472;28;20051;-47
2023/04/27 12:13:52;;;;;;;2.67;1.27;;;12.60;99.90;;;;;;5052665;28;20070;-45
2023/04/27 12:16:20;;;;;;;2.25;1.40;;;12.60;99.90;;;;;;5052393;28;20567;-45
2023/04/27 12:18:47;;;;;;;2.53;1.50;;;12.60;99.90;;;;;;5053079;28;20130;-45
2023/04/27 12:21:13;;;;;;;3.08;1.67;;;12.60;99.90;;;;;;5051824;28;20036;-45
2023/04/27 12:23:38;;;;;;;4.95;1.42;;;12.60;99.90;;;;;;5052334;28;20029;-43
2023/04/27 12:26:04;;;;;;;1.75;1.30;;;12.60;99.90;;;;;;5052039;28;20049;-44
2023/04/27 12:28:30;;;;;;;2.55;1.60;;;12.60;99.90;;;;;;5052865;28;20052;-47
2023/04/27 12:30:56;;;;;;;3.53;1.73;;;12.60;99.90;;;;;;5052518;28;20386;-44
2023/04/27 12:33:22;;;;;;;5.38;1.70;;;12.60;99.90;;;;;;5052964;28;20494;-45
2023/04/27 12:35:47;;;;;;;3.13;1.17;;;12.60;99.90;;;;;;5051761;28;20061;-45
2023/04/27 12:38:13;;;;;;;2.35;1.50;;;12.60;99.90;;;;;;5052523;28;20092;-45
2023/04/27 12:40:39;;;;;;;4.28;1.50;;;12.60;99.90;;;;;;5052405;28;20781;-45
2023/04/27 12:43:06;;;;;;;2.47;1.38;;;12.60;99.90;;;;;;5050702;28;20033;-46
2023/04/27 12:45:32;;;;;;;4.20;1.55;;;12.60;99.90;;;;;;5052089;28;20492;-45
2023/04/27 12:47:58;;;;;;;3.72;1.40;;;12.60;99.90;;;;;;5051696;28;20036;-45
2023/04/27 12:50:23;;;;;;;2.42;1.48;;;12.60;99.90;;;;;;5052839;28;20056;-47
2023/04/27 12:52:50;;;;;;;2.85;1.42;;;12.70;99.90;;;;;;5053131;28;20075;-47
2023/04/27 12:55:16;;;;;;;2.92;1.50;;;12.70;99.90;;;;;;5052058;28;20074;-47
2023/04/27 12:57:41;;;;;;;5.10;1.55;;;12.60;99.90;;;;;;5051429;28;20028;-45
2023/04/27 13:00:09;;;;;;;3.05;1.60;;;12.60;99.90;;;;;;5051867;28;20036;-47
2023/04/27 13:02:35;;;;;;;2.55;1.42;;;12.70;99.90;;;;;;5051982;28;20025;-45
2023/04/27 13:05:02;;;;;;;4.43;1.17;;;12.70;99.90;;;;;;5051663;28;20102;-46
2023/04/27 13:07:28;;;;;;;2.53;1.60;;;12.70;99.90;;;;;;5052261;28;20505;-45
2023/04/27 13:09:54;;;;;;;2.42;1.60;;;12.70;99.90;;;;;;5052472;28;20063;-45
2023/04/27 13:12:20;;;;;;;3.85;1.40;;;12.70;99.90;;;;;;5051676;28;20390;-47
2023/04/27 13:14:46;;;;;;;3.00;1.48;;;12.70;99.90;;;;;;5051595;28;20029;-45
2023/04/27 13:17:11;;;;;;;3.15;1.33;;;12.70;99.90;;;;;;5050999;28;20036;-46
2023/04/27 13:19:37;;;;;;;2.67;1.45;;;12.60;99.90;;;;;;5051359;28;20586;-45
2023/04/27 13:22:03;;;;;;;3.05;1.30;;;12.70;99.90;;;;;;5050902;28;20031;-45
2023/04/27 13:24:29;;;;;;;2.67;1.30;;;12.60;99.90;;;;;;5051333;28;20445;-45
2023/04/27 13:26:55;;;;;;;3.25;1.55;;;12.60;99.90;;;;;;5051024;28;20025;-43
2023/04/27 13:29:23;;;;;;;3.22;1.55;;;12.60;99.90;;;;;;5051241;28;20505;-45
2023/04/27 13:31:49;;;;;;;2.50;1.80;;;12.70;99.90;;;;;;5051385;28;20423;-47
2023/04/27 13:34:15;;;;;;;3.67;1.40;;;12.70;99.90;;;;;;5052418;28;20025;-43
2023/04/27 13:36:41;;;;;;;4.25;1.88;;;12.70;99.90;;;;;;5050902;28;20036;-45
2023/04/27 13:39:07;;;;;;;2.97;1.42;;;12.60;99.90;;;;;;5051259;28;20025;-45
2023/04/27 13:41:33;;;;;;;3.50;1.55;;;12.70;99.90;;;;;;5051328;28;20033;-44